Time;durP1;ratioP1;P1;durP2;ratioP2;P2;SDS_P1;SDS_P2;PMS_P1;PMS_P2;Temp;Humidity;BMP_temperature;BMP_pressure;BME280_temperature;BME280_humidity;BME280_pressure;Samples;Min_cycle;Max_cycle;Signal;HPM_P1;HPM_P2
2022/07/16 00:02:56;;;;;;;2.35;0.80;;;22.50;60.50;;;;;;4992293;28;20481;-63
2022/07/16 00:05:22;;;;;;;2.63;0.73;;;22.50;60.50;;;;;;4993425;28;20030;-63
2022/07/16 00:07:48;;;;;;;2.08;0.60;;;22.50;60.50;;;;;;4993114;28;20050;-63
2022/07/16 00:10:13;;;;;;;3.15;0.88;;;22.50;60.50;;;;;;4992590;28;20046;-62
2022/07/16 00:12:39;;;;;;;1.85;0.70;;;22.50;60.50;;;;;;4992848;28;20053;-63
2022/07/16 00:15:05;;;;;;;2.05;0.98;;;22.50;60.50;;;;;;4992312;28;20057;-63
2022/07/16 00:17:30;;;;;;;2.85;0.70;;;22.50;60.50;;;;;;4993085;28;20050;-63
2022/07/16 00:19:57;;;;;;;2.25;0.70;;;22.50;60.50;;;;;;4991698;28;20050;-63
2022/07/16 00:22:22;;;;;;;1.17;0.60;;;22.40;60.50;;;;;;4991286;28;20058;-63
2022/07/16 00:24:48;;;;;;;2.53;0.85;;;22.50;60.50;;;;;;4992808;28;20486;-63
2022/07/16 00:27:13;;;;;;;2.28;1.05;;;22.50;60.50;;;;;;4993771;28;20093;-62
2022/07/16 00:29:39;;;;;;;2.05;0.77;;;22.50;60.50;;;;;;4996279;28;20057;-63
2022/07/16 00:32:05;;;;;;;1.13;0.70;;;22.40;60.50;;;;;;4996759;28;20081;-63
2022/07/16 00:34:30;;;;;;;2.35;0.90;;;22.40;60.50;;;;;;4995968;28;20054;-62
2022/07/16 00:36:56;;;;;;;2.10;0.80;;;22.50;60.60;;;;;;4995979;28;20046;-63
2022/07/16 00:39:21;;;;;;;2.65;1.00;;;22.40;60.50;;;;;;4997198;28;20537;-63
2022/07/16 00:41:47;;;;;;;1.65;0.80;;;22.40;60.50;;;;;;4996706;28;20046;-63
2022/07/16 00:44:17;;;;;;;1.13;0.50;;;22.40;60.50;;;;;;4996242;28;20117;-62
2022/07/16 00:46:43;;;;;;;2.08;0.63;;;22.40;60.50;;;;;;4996759;28;20130;-63
2022/07/16 00:49:09;;;;;;;2.58;0.80;;;22.40;60.50;;;;;;4996792;28;20112;-62
2022/07/16 00:51:35;;;;;;;2.92;0.80;;;22.40;60.60;;;;;;4994778;28;20042;-62
2022/07/16 00:54:01;;;;;;;1.92;0.75;;;22.40;60.60;;;;;;4996704;28;20050;-63
2022/07/16 00:56:26;;;;;;;2.25;0.70;;;22.40;60.60;;;;;;4996619;28;20081;-63
2022/07/16 00:58:52;;;;;;;1.92;0.70;;;22.40;60.60;;;;;;4995770;28;20069;-63
2022/07/16 01:01:18;;;;;;;2.15;0.88;;;22.40;60.60;;;;;;4996449;28;20506;-63
2022/07/16 01:03:44;;;;;;;1.33;0.60;;;22.40;60.60;;;;;;4996198;28;20038;-62
2022/07/16 01:06:10;;;;;;;1.15;0.60;;;22.40;60.60;;;;;;4995825;28;20065;-63
2022/07/16 01:08:36;;;;;;;1.15;0.70;;;22.40;60.60;;;;;;4996614;28;20121;-63
2022/07/16 01:11:04;;;;;;;2.20;0.70;;;22.40;60.60;;;;;;4994793;28;20054;-63
2022/07/16 01:13:29;;;;;;;1.90;0.80;;;22.40;60.60;;;;;;4994138;28;20069;-63
2022/07/16 01:15:55;;;;;;;2.72;0.70;;;22.40;60.70;;;;;;4995102;28;20046;-63
2022/07/16 01:18:20;;;;;;;1.38;0.70;;;22.40;60.60;;;;;;4996365;28;20039;-63
2022/07/16 01:20:46;;;;;;;2.03;0.90;;;22.40;60.70;;;;;;4995325;28;20045;-63
2022/07/16 01:23:32;;;;;;;2.15;1.00;;;22.40;60.70;;;;;;4996379;28;20039;-63
2022/07/16 01:25:57;;;;;;;0.65;0.50;;;22.30;60.60;;;;;;4994833;28;20085;-63
2022/07/16 01:28:23;;;;;;;2.00;0.80;;;22.40;60.80;;;;;;4996136;28;20046;-62
2022/07/16 01:30:49;;;;;;;2.88;0.85;;;22.30;60.70;;;;;;4995953;28;20188;-63
2022/07/16 01:33:24;;;;;;;2.17;0.80;;;22.40;60.80;;;;;;4995333;28;20054;-63
2022/07/16 01:35:51;;;;;;;2.15;0.90;;;22.40;60.70;;;;;;4995277;28;20046;-63
2022/07/16 01:38:16;;;;;;;2.20;0.90;;;22.30;60.70;;;;;;4995691;28;20042;-63
2022/07/16 01:40:42;;;;;;;2.30;0.80;;;22.30;60.70;;;;;;4994942;28;20045;-63
2022/07/16 01:43:18;;;;;;;2.40;0.65;;;22.30;60.70;;;;;;4995773;28;20421;-63
2022/07/16 01:45:44;;;;;;;1.25;0.60;;;22.40;60.70;;;;;;4995237;28;20485;-62
2022/07/16 01:48:10;;;;;;;1.13;0.50;;;22.30;60.70;;;;;;4994854;28;20054;-62
2022/07/16 01:50:36;;;;;;;1.45;0.95;;;22.30;60.70;;;;;;4995761;28;20429;-63
2022/07/16 01:53:02;;;;;;;2.00;0.60;;;22.30;60.70;;;;;;4995556;28;20042;-62
2022/07/16 01:55:27;;;;;;;1.92;0.70;;;22.30;60.70;;;;;;4995069;28;20046;-63
2022/07/16 01:57:53;;;;;;;1.40;0.70;;;22.30;60.80;;;;;;4994242;28;20386;-62
2022/07/16 02:00:18;;;;;;;1.88;0.70;;;22.30;60.80;;;;;;4994909;28;20391;-62
2022/07/16 02:02:44;;;;;;;1.27;0.65;;;22.30;60.80;;;;;;4993653;28;20504;-63
2022/07/16 02:05:09;;;;;;;1.42;0.73;;;22.30;60.80;;;;;;4994561;28;20046;-63
2022/07/16 02:07:35;;;;;;;1.77;0.75;;;22.30;60.80;;;;;;4994935;28;20513;-63
2022/07/16 02:10:01;;;;;;;2.10;1.30;;;22.30;60.80;;;;;;4994347;28;20046;-63
2022/07/16 02:12:26;;;;;;;1.60;0.60;;;22.30;60.80;;;;;;4994145;28;20045;-63
2022/07/16 02:14:52;;;;;;;1.90;0.80;;;22.30;60.80;;;;;;4994073;28;20536;-63
2022/07/16 02:17:17;;;;;;;1.10;0.82;;;22.30;60.80;;;;;;4995273;28;20438;-63
2022/07/16 02:19:43;;;;;;;1.30;0.70;;;22.30;60.80;;;;;;4994648;28;20173;-63
2022/07/16 02:22:09;;;;;;;1.25;0.55;;;22.30;60.90;;;;;;4993093;28;20046;-63
2022/07/16 02:24:35;;;;;;;1.23;0.70;;;22.20;60.80;;;;;;4994113;28;20046;-63
2022/07/16 02:27:00;;;;;;;1.33;0.73;;;22.30;60.90;;;;;;4994727;28;20138;-62
2022/07/16 02:29:26;;;;;;;1.40;0.80;;;22.20;60.90;;;;;;4993858;28;20125;-63
2022/07/16 02:31:51;;;;;;;1.13;0.50;;;22.20;60.80;;;;;;4994411;28;20398;-62
2022/07/16 02:34:17;;;;;;;1.45;0.70;;;22.20;61.50;;;;;;4994605;28;20039;-63
2022/07/16 02:36:42;;;;;;;1.27;0.70;;;22.20;60.90;;;;;;4993834;28;20050;-63
2022/07/16 02:39:08;;;;;;;1.17;0.60;;;22.20;60.90;;;;;;4995032;28;20039;-63
2022/07/16 02:41:33;;;;;;;2.35;0.70;;;22.20;60.90;;;;;;4994848;28;20046;-63
2022/07/16 02:43:59;;;;;;;2.05;0.70;;;22.20;60.90;;;;;;4993715;28;20047;-63
2022/07/16 02:46:24;;;;;;;2.42;0.80;;;22.20;60.90;;;;;;4994779;28;20054;-63
2022/07/16 02:48:50;;;;;;;1.83;0.80;;;22.20;61.00;;;;;;4994420;28;20158;-63
2022/07/16 02:51:15;;;;;;;1.83;0.70;;;22.20;61.00;;;;;;4992113;28;20042;-63
2022/07/16 02:53:41;;;;;;;1.58;0.75;;;22.20;61.00;;;;;;4994728;28;20045;-63
2022/07/16 02:56:07;;;;;;;1.55;0.70;;;22.20;61.00;;;;;;4994055;28;20047;-62
2022/07/16 02:58:32;;;;;;;1.65;0.60;;;22.20;61.00;;;;;;4993375;28;20125;-63
2022/07/16 03:00:58;;;;;;;1.73;0.70;;;22.20;61.10;;;;;;4994063;28;20046;-62
2022/07/16 03:03:23;;;;;;;1.95;0.70;;;22.20;61.10;;;;;;4994449;28;20444;-63
2022/07/16 03:05:49;;;;;;;1.38;0.60;;;22.20;61.10;;;;;;4993463;28;20057;-63
2022/07/16 03:08:14;;;;;;;1.05;0.60;;;22.20;61.10;;;;;;4994256;28;20046;-63
2022/07/16 03:10:40;;;;;;;1.83;0.70;;;22.20;61.10;;;;;;4992887;28;20042;-63
2022/07/16 03:13:06;;;;;;;1.23;0.70;;;22.20;61.20;;;;;;4992970;28;20050;-63
2022/07/16 03:15:31;;;;;;;2.33;0.75;;;22.20;61.20;;;;;;4994159;28;20497;-63
2022/07/16 03:17:57;;;;;;;1.20;0.60;;;22.20;61.20;;;;;;4993489;28;20046;-63
2022/07/16 03:20:23;;;;;;;2.55;0.80;;;22.20;61.30;;;;;;4993826;28;20121;-63
2022/07/16 03:22:48;;;;;;;1.27;0.75;;;22.20;61.30;;;;;;4993829;28;20072;-62
2022/07/16 03:25:14;;;;;;;1.98;0.70;;;22.20;61.30;;;;;;4993198;28;20490;-62
2022/07/16 03:27:40;;;;;;;2.35;0.80;;;22.20;61.30;;;;;;4993970;28;20049;-62
2022/07/16 03:30:06;;;;;;;1.45;0.70;;;22.20;61.30;;;;;;4993455;28;20097;-62
2022/07/16 03:32:32;;;;;;;1.50;0.77;;;22.20;61.30;;;;;;4992014;28;20462;-62
2022/07/16 03:34:57;;;;;;;1.27;0.85;;;22.20;61.40;;;;;;4993754;28;20104;-62
2022/07/16 03:37:23;;;;;;;1.20;0.60;;;22.20;61.40;;;;;;4992375;28;20129;-62
2022/07/16 03:39:48;;;;;;;1.63;0.65;;;22.20;61.50;;;;;;4992786;28;20038;-63
2022/07/16 03:42:14;;;;;;;1.42;0.70;;;22.20;61.50;;;;;;4992439;28;20046;-62
2022/07/16 03:44:39;;;;;;;1.83;0.60;;;22.10;61.40;;;;;;4993820;28;20050;-62
2022/07/16 03:47:05;;;;;;;1.13;0.63;;;22.20;61.40;;;;;;4992256;28;20050;-63
2022/07/16 03:49:31;;;;;;;1.85;0.57;;;22.10;61.40;;;;;;4993496;28;20397;-63
2022/07/16 03:51:56;;;;;;;1.10;0.70;;;22.20;61.50;;;;;;4993337;28;20129;-63
2022/07/16 03:54:22;;;;;;;1.15;0.70;;;22.10;61.50;;;;;;4991745;28;20117;-62
2022/07/16 03:56:47;;;;;;;1.95;0.60;;;22.10;61.50;;;;;;4993394;28;20046;-63
2022/07/16 03:59:13;;;;;;;1.70;0.50;;;22.10;61.50;;;;;;4993472;28;20050;-62
2022/07/16 04:01:38;;;;;;;1.30;0.70;;;22.10;61.60;;;;;;5000803;28;20038;-62
2022/07/16 04:04:04;;;;;;;1.33;0.80;;;22.10;61.60;;;;;;4998904;28;20050;-62
2022/07/16 04:06:30;;;;;;;1.50;0.60;;;22.10;61.60;;;;;;4992834;28;20053;-63
2022/07/16 04:08:55;;;;;;;2.20;0.77;;;22.10;61.60;;;;;;4991513;28;20120;-62
2022/07/16 04:11:21;;;;;;;1.40;0.70;;;22.10;61.60;;;;;;4993185;28;20043;-63
2022/07/16 04:13:46;;;;;;;1.02;0.68;;;22.10;61.60;;;;;;4991366;28;20502;-63
2022/07/16 04:16:12;;;;;;;1.27;0.70;;;22.10;61.70;;;;;;4992405;28;20049;-63
2022/07/16 04:18:37;;;;;;;1.30;0.65;;;22.10;61.70;;;;;;4993075;28;20101;-62
2022/07/16 04:21:04;;;;;;;1.50;0.60;;;22.10;61.70;;;;;;4993169;28;20439;-62
2022/07/16 04:23:30;;;;;;;1.40;0.55;;;22.10;61.70;;;;;;4992448;28;20486;-63
2022/07/16 04:25:55;;;;;;;1.63;0.60;;;22.10;61.70;;;;;;4993035;28;20046;-63
2022/07/16 04:28:21;;;;;;;1.13;0.68;;;22.10;61.70;;;;;;4991052;28;20042;-62
2022/07/16 04:30:47;;;;;;;1.50;0.50;;;22.10;61.90;;;;;;4992481;28;20042;-63
2022/07/16 04:33:12;;;;;;;1.85;0.70;;;22.10;61.90;;;;;;4993400;28;20038;-63
2022/07/16 04:35:38;;;;;;;1.20;0.70;;;22.10;62.00;;;;;;4990948;28;20537;-62
2022/07/16 04:38:03;;;;;;;1.00;0.50;;;22.10;62.00;;;;;;4993023;28;20049;-62
2022/07/16 04:40:29;;;;;;;1.08;0.60;;;22.10;62.00;;;;;;4993279;28;20113;-63
2022/07/16 04:42:55;;;;;;;2.42;0.60;;;22.10;62.10;;;;;;4990617;28;20591;-62
2022/07/16 04:45:20;;;;;;;1.75;0.70;;;22.20;62.10;;;;;;4993171;28;20038;-63
2022/07/16 04:47:46;;;;;;;1.58;0.75;;;22.20;62.10;;;;;;4992768;28;20143;-63
2022/07/16 04:50:12;;;;;;;1.25;0.60;;;22.20;62.10;;;;;;4990962;28;20054;-63
2022/07/16 04:52:37;;;;;;;1.35;0.77;;;22.20;62.10;;;;;;4993184;28;20034;-63
2022/07/16 04:55:03;;;;;;;2.20;0.65;;;22.20;62.10;;;;;;4991648;28;20104;-63
2022/07/16 04:57:29;;;;;;;1.23;0.60;;;22.20;62.10;;;;;;4992029;28;20050;-63
2022/07/16 04:59:54;;;;;;;1.63;0.60;;;22.20;62.20;;;;;;4992852;28;20481;-63
2022/07/16 05:05:04;;;;;;;1.70;0.88;;;22.20;62.20;;;;;;4992036;28;20042;-63
2022/07/16 05:07:30;;;;;;;1.65;0.60;;;22.20;62.30;;;;;;4992886;28;20132;-62
2022/07/16 05:09:56;;;;;;;1.67;0.60;;;22.20;62.30;;;;;;4992587;28;20165;-63
2022/07/16 05:12:21;;;;;;;1.55;0.65;;;22.20;62.30;;;;;;4991710;28;20525;-63
2022/07/16 05:14:47;;;;;;;1.48;0.63;;;22.20;62.30;;;;;;4995048;28;20057;-63
2022/07/16 05:17:12;;;;;;;1.85;0.73;;;22.20;62.30;;;;;;4996577;28;20112;-63
2022/07/16 05:19:38;;;;;;;1.25;0.60;;;22.20;62.40;;;;;;4995710;28;20040;-63
2022/07/16 05:22:05;;;;;;;1.10;0.60;;;22.20;62.30;;;;;;4996096;28;20442;-63
2022/07/16 05:24:31;;;;;;;1.80;0.75;;;22.20;62.40;;;;;;4996392;28;20074;-63
2022/07/16 05:26:57;;;;;;;1.95;0.57;;;22.30;62.50;;;;;;4995132;28;20078;-63
2022/07/16 05:29:22;;;;;;;1.70;0.70;;;22.30;62.40;;;;;;4995771;28;20080;-63
2022/07/16 05:31:48;;;;;;;1.13;0.50;;;22.30;62.40;;;;;;4995054;28;20042;-63
2022/07/16 05:34:13;;;;;;;1.92;0.50;;;22.30;62.40;;;;;;4996167;28;20104;-63
2022/07/16 05:36:39;;;;;;;1.30;0.80;;;22.30;62.30;;;;;;4995891;28;20093;-63
2022/07/16 05:39:04;;;;;;;1.90;0.50;;;22.30;62.20;;;;;;4995028;28;20097;-63
2022/07/16 05:41:30;;;;;;;2.67;0.60;;;22.30;62.30;;;;;;4995686;28;20058;-63
2022/07/16 05:43:57;;;;;;;1.65;0.70;;;22.30;62.30;;;;;;4995261;28;20046;-63
2022/07/16 05:46:23;;;;;;;2.07;0.63;;;22.20;62.30;;;;;;4995280;28;20054;-63
2022/07/16 05:48:48;;;;;;;1.67;0.52;;;22.30;62.30;;;;;;4995309;28;20038;-63
2022/07/16 05:51:14;;;;;;;1.65;0.80;;;22.30;62.40;;;;;;4995855;28;20527;-63
2022/07/16 05:53:39;;;;;;;0.90;0.60;;;22.30;62.40;;;;;;4993711;28;20053;-63
2022/07/16 05:56:05;;;;;;;2.63;0.63;;;22.30;62.40;;;;;;4993877;28;20042;-63
2022/07/16 05:58:30;;;;;;;1.13;0.50;;;22.30;62.30;;;;;;4995587;28;20092;-63
2022/07/16 06:00:56;;;;;;;1.10;0.50;;;22.30;62.20;;;;;;4994798;28;20129;-63
2022/07/16 06:03:22;;;;;;;1.40;0.60;;;22.30;62.20;;;;;;4994531;28;20133;-62
2022/07/16 06:05:47;;;;;;;1.90;0.70;;;22.30;62.20;;;;;;4995431;28;20156;-63
2022/07/16 06:08:12;;;;;;;3.78;0.90;;;22.30;62.20;;;;;;4994670;28;20120;-63
2022/07/16 06:10:38;;;;;;;3.28;1.10;;;22.30;62.30;;;;;;4995162;28;20231;-64
2022/07/16 06:13:04;;;;;;;2.78;0.70;;;22.30;62.40;;;;;;4994931;28;20064;-64
2022/07/16 06:15:29;;;;;;;2.72;0.70;;;22.30;62.30;;;;;;4994686;28;20125;-61
2022/07/16 06:17:55;;;;;;;1.48;0.60;;;22.30;62.40;;;;;;4994918;28;20053;-62
2022/07/16 06:20:20;;;;;;;3.13;0.82;;;22.30;62.30;;;;;;4995271;28;20046;-62
2022/07/16 06:22:46;;;;;;;2.20;0.70;;;22.30;62.30;;;;;;4994382;28;20034;-63
2022/07/16 06:25:12;;;;;;;3.63;0.60;;;22.30;62.30;;;;;;4993943;28;20452;-62
2022/07/16 06:27:44;;;;;;;1.55;0.60;;;22.30;62.30;;;;;;4993472;28;20125;-62
2022/07/16 06:30:10;;;;;;;6.53;0.95;;;22.40;62.50;;;;;;4994358;28;20145;-63
2022/07/16 06:32:35;;;;;;;3.95;1.15;;;22.40;62.40;;;;;;4995295;28;20084;-63
2022/07/16 06:35:01;;;;;;;9.25;1.55;;;22.40;62.60;;;;;;4992642;28;20050;-63
2022/07/16 06:37:26;;;;;;;7.13;0.93;;;22.40;62.70;;;;;;4994890;28;20046;-63
2022/07/16 06:39:52;;;;;;;10.95;1.00;;;22.40;62.70;;;;;;4994678;28;20042;-64
2022/07/16 06:42:18;;;;;;;6.50;0.70;;;22.50;62.90;;;;;;4992459;28;20070;-62
2022/07/16 06:44:43;;;;;;;7.80;0.80;;;22.50;62.80;;;;;;4994438;28;20049;-63
2022/07/16 06:47:09;;;;;;;6.00;0.90;;;22.50;62.90;;;;;;4994818;28;20121;-62
2022/07/16 06:49:34;;;;;;;4.63;1.20;;;22.50;62.80;;;;;;4993792;28;20046;-64
2022/07/16 06:52:00;;;;;;;7.45;1.52;;;22.50;62.80;;;;;;4993065;28;20451;-63
2022/07/16 06:54:25;;;;;;;5.03;1.40;;;22.50;62.80;;;;;;4993033;28;20069;-63
2022/07/16 06:56:51;;;;;;;5.15;0.82;;;22.50;62.90;;;;;;4993591;28;20038;-63
2022/07/16 06:59:16;;;;;;;4.85;1.00;;;22.50;62.90;;;;;;4994431;28;20042;-63
2022/07/16 07:01:42;;;;;;;7.40;1.02;;;22.50;63.00;;;;;;4994581;28;20393;-63
2022/07/16 07:04:07;;;;;;;6.22;0.90;;;22.50;63.00;;;;;;4992570;28;20374;-63
2022/07/16 07:06:33;;;;;;;3.70;1.15;;;22.50;63.00;;;;;;4994521;28;20038;-63
2022/07/16 07:08:59;;;;;;;6.32;0.90;;;22.50;63.10;;;;;;4992495;28;20081;-62
2022/07/16 07:11:24;;;;;;;3.38;0.80;;;22.50;63.10;;;;;;4993593;28;20069;-62
2022/07/16 07:13:50;;;;;;;4.43;0.90;;;22.60;63.10;;;;;;4993692;28;20085;-63
2022/07/16 07:16:16;;;;;;;6.13;0.90;;;22.50;63.10;;;;;;4994355;28;20049;-64
2022/07/16 07:18:41;;;;;;;6.15;1.05;;;22.60;63.20;;;;;;4993192;28;20046;-63
2022/07/16 07:21:07;;;;;;;3.67;0.82;;;22.60;63.20;;;;;;4993704;28;20052;-64
2022/07/16 07:23:33;;;;;;;4.50;0.65;;;22.60;63.20;;;;;;4993806;28;20049;-64
2022/07/16 07:25:58;;;;;;;1.73;0.63;;;22.60;63.20;;;;;;4991139;28;20043;-63
2022/07/16 07:28:24;;;;;;;3.78;0.70;;;22.60;63.20;;;;;;5007190;28;20046;-64
2022/07/16 07:30:49;;;;;;;3.78;0.80;;;22.60;63.10;;;;;;5012593;28;20463;-64
2022/07/16 07:33:15;;;;;;;5.30;0.80;;;22.70;63.10;;;;;;5011415;28;20050;-64
2022/07/16 07:35:41;;;;;;;3.83;0.80;;;22.70;63.10;;;;;;5013434;28;20050;-64
2022/07/16 07:38:06;;;;;;;5.88;0.98;;;22.70;63.10;;;;;;5012378;28;20049;-64
2022/07/16 07:40:32;;;;;;;3.75;0.98;;;22.70;63.00;;;;;;5011183;28;20081;-64
2022/07/16 07:42:59;;;;;;;5.07;0.60;;;22.70;62.90;;;;;;5012797;28;20085;-64
2022/07/16 07:45:25;;;;;;;3.20;0.63;;;22.80;62.90;;;;;;5012610;28;20121;-64
2022/07/16 07:47:51;;;;;;;4.18;0.70;;;22.80;62.90;;;;;;5010880;28;20493;-64
2022/07/16 07:50:16;;;;;;;2.53;0.70;;;22.80;63.50;;;;;;5011643;28;20092;-63
2022/07/16 07:52:42;;;;;;;2.15;0.60;;;22.80;62.70;;;;;;5012248;28;20129;-65
2022/07/16 07:55:08;;;;;;;4.35;0.90;;;22.80;62.60;;;;;;5002760;28;20038;-64
2022/07/16 07:57:33;;;;;;;5.30;0.75;;;22.80;62.40;;;;;;5001469;28;20041;-64
2022/07/16 07:59:59;;;;;;;3.45;0.77;;;22.80;62.40;;;;;;4991350;28;20092;-64
2022/07/16 08:02:25;;;;;;;3.63;0.60;;;22.80;62.40;;;;;;4993407;28;20081;-64
2022/07/16 08:04:51;;;;;;;3.67;0.80;;;22.90;62.40;;;;;;4991646;28;20049;-62
2022/07/16 08:07:17;;;;;;;3.85;0.65;;;22.90;62.30;;;;;;5011134;28;20042;-63
2022/07/16 08:09:43;;;;;;;3.88;0.85;;;22.90;62.30;;;;;;5012619;28;20045;-63
2022/07/16 08:12:08;;;;;;;4.30;0.80;;;22.90;62.30;;;;;;5012650;28;20401;-64
2022/07/16 08:14:34;;;;;;;2.83;0.82;;;22.90;62.30;;;;;;5011790;28;20054;-63
2022/07/16 08:16:59;;;;;;;3.13;0.60;;;22.90;62.20;;;;;;5012711;28;20160;-64
2022/07/16 08:19:25;;;;;;;3.03;0.80;;;22.90;62.00;;;;;;5012879;28;20404;-64
2022/07/16 08:21:51;;;;;;;2.67;0.40;;;22.80;61.80;;;;;;5011877;28;20052;-64
2022/07/16 08:27:01;;;;;;;3.25;0.68;;;22.80;61.60;;;;;;5012706;28;20058;-65
2022/07/16 08:29:26;;;;;;;4.07;0.80;;;22.80;61.60;;;;;;5010739;28;20060;-64
2022/07/16 08:31:52;;;;;;;5.20;0.63;;;22.80;61.50;;;;;;5012597;28;20046;-65
2022/07/16 08:34:19;;;;;;;4.25;0.80;;;22.80;61.40;;;;;;5012662;28;20068;-64
2022/07/16 08:36:45;;;;;;;5.88;0.60;;;22.80;61.20;;;;;;5012040;28;20069;-64
2022/07/16 08:39:10;;;;;;;2.33;0.50;;;22.80;60.60;;;;;;5012524;28;20509;-64
2022/07/16 08:41:36;;;;;;;3.22;0.70;;;22.80;59.80;;;;;;5010443;28;20513;-64
2022/07/16 08:44:02;;;;;;;6.25;0.60;;;22.70;59.00;;;;;;5011415;28;20326;-64
2022/07/16 08:46:27;;;;;;;3.83;0.60;;;22.70;57.50;;;;;;5012681;28;20077;-64
2022/07/16 08:48:53;;;;;;;3.03;0.50;;;22.70;56.90;;;;;;5012093;28;20052;-63
2022/07/16 08:51:21;;;;;;;2.42;0.50;;;22.60;54.80;;;;;;5016561;28;20042;-63
2022/07/16 08:53:46;;;;;;;2.67;0.60;;;22.60;53.50;;;;;;5015076;28;20092;-64
2022/07/16 08:56:12;;;;;;;6.80;0.60;;;22.50;53.30;;;;;;5014645;28;20069;-64
2022/07/16 08:58:37;;;;;;;4.13;0.60;;;22.50;52.90;;;;;;5012290;28;20077;-64
2022/07/16 09:01:03;;;;;;;3.30;0.50;;;22.50;52.70;;;;;;4997199;28;20122;-64
2022/07/16 09:03:29;;;;;;;4.60;0.52;;;22.50;52.50;;;;;;4995958;28;20038;-63
2022/07/16 09:05:54;;;;;;;5.40;0.68;;;22.40;52.10;;;;;;4996149;28;20497;-64
2022/07/16 09:08:20;;;;;;;1.38;0.57;;;22.40;51.70;;;;;;4996795;28;20049;-63
2022/07/16 09:10:46;;;;;;;2.22;0.57;;;22.50;51.80;;;;;;4995560;28;20469;-62
2022/07/16 09:13:12;;;;;;;2.92;0.63;;;22.40;51.50;;;;;;4995096;28;20509;-63
2022/07/16 09:15:41;;;;;;;3.08;0.43;;;22.40;51.40;;;;;;4996682;28;20117;-63
2022/07/16 09:18:11;;;;;;;3.10;0.40;;;22.50;51.20;;;;;;4995282;28;20078;-63
2022/07/16 09:20:50;;;;;;;3.15;0.40;;;22.50;51.30;;;;;;4996151;28;20513;-63
2022/07/16 09:23:29;;;;;;;5.65;0.82;;;22.50;51.10;;;;;;4996473;28;20046;-63
2022/07/16 09:25:58;;;;;;;3.67;0.65;;;22.40;52.20;;;;;;4995194;28;20053;-64
2022/07/16 09:28:25;;;;;;;4.00;0.65;;;22.40;51.30;;;;;;4995793;28;20371;-63
2022/07/16 09:30:51;;;;;;;6.28;0.60;;;22.40;51.10;;;;;;4994991;28;20077;-63
2022/07/16 09:33:20;;;;;;;6.63;0.55;;;22.40;51.20;;;;;;4996268;28;20398;-63
2022/07/16 09:35:47;;;;;;;3.97;0.73;;;22.40;50.90;;;;;;4995759;28;20047;-63
2022/07/16 09:38:13;;;;;;;3.40;0.57;;;22.40;50.80;;;;;;4995365;28;20517;-64
2022/07/16 09:40:46;;;;;;;4.72;0.50;;;22.40;50.30;;;;;;4996126;28;20046;-63
2022/07/16 09:43:11;;;;;;;2.78;0.85;;;22.40;49.90;;;;;;4996189;28;20050;-62
2022/07/16 09:45:39;;;;;;;3.03;0.38;;;22.40;49.90;;;;;;4994568;28;20038;-63
2022/07/16 09:48:22;;;;;;;3.90;0.65;;;22.40;49.50;;;;;;4994232;28;20064;-64
2022/07/16 09:50:48;;;;;;;3.25;0.43;;;22.30;49.50;;;;;;4995745;28;20044;-64
2022/07/16 09:53:14;;;;;;;1.60;0.30;;;22.30;49.50;;;;;;4994788;28;20054;-63
2022/07/16 09:55:59;;;;;;;2.97;0.60;;;22.30;49.30;;;;;;4995758;28;20043;-63
2022/07/16 09:58:24;;;;;;;3.72;0.60;;;22.30;49.00;;;;;;4994328;28;20053;-63
2022/07/16 10:00:50;;;;;;;2.50;0.77;;;22.30;49.20;;;;;;4994481;28;20042;-63
2022/07/16 10:03:16;;;;;;;5.82;0.50;;;22.20;49.00;;;;;;4994216;28;20075;-62
2022/07/16 10:05:42;;;;;;;4.50;0.68;;;22.30;49.10;;;;;;4995813;28;20050;-63
2022/07/16 10:08:07;;;;;;;4.03;1.08;;;22.20;48.80;;;;;;4993438;28;20058;-62
2022/07/16 10:10:33;;;;;;;5.30;0.90;;;22.20;49.00;;;;;;4995429;28;20045;-62
2022/07/16 10:12:58;;;;;;;3.30;0.60;;;22.20;48.80;;;;;;4994264;28;20390;-62
2022/07/16 10:15:24;;;;;;;4.70;0.57;;;22.20;48.90;;;;;;4994401;28;20046;-63
2022/07/16 10:17:50;;;;;;;4.03;0.60;;;22.20;48.90;;;;;;4977928;28;20477;-64
2022/07/16 10:20:18;;;;;;;3.40;0.45;;;22.20;48.90;;;;;;4994769;28;20096;-64
2022/07/16 10:22:45;;;;;;;3.65;0.50;;;22.20;48.90;;;;;;4993835;28;20126;-63
2022/07/16 10:25:13;;;;;;;3.67;0.60;;;22.20;49.10;;;;;;4995075;28;20054;-64
2022/07/16 10:27:39;;;;;;;;;;;22.30;49.20;;;;;;4993624;28;20100;-64
2022/07/16 10:30:13;;;;;;;2.33;0.50;;;22.20;49.40;;;;;;4993489;28;19921;-64
2022/07/16 10:33:03;;;;;;;2.88;0.60;;;22.30;49.40;;;;;;4995317;28;20129;-64
2022/07/16 10:35:45;;;;;;;3.17;0.50;;;22.30;49.40;;;;;;4994341;28;20042;-64
2022/07/16 10:38:27;;;;;;;4.88;0.60;;;22.30;49.50;;;;;;4993252;28;20057;-64
2022/07/16 10:41:15;;;;;;;3.05;0.50;;;22.30;49.60;;;;;;4994865;28;20077;-64
2022/07/16 10:43:41;;;;;;;3.15;0.52;;;22.30;49.80;;;;;;4994694;28;20505;-64
2022/07/16 10:46:08;;;;;;;3.08;0.52;;;22.30;49.80;;;;;;4994507;28;20044;-62
2022/07/16 10:48:36;;;;;;;6.20;0.50;;;22.40;50.00;;;;;;4995925;28;20042;-63
2022/07/16 10:51:13;;;;;;;3.83;0.70;;;22.40;50.10;;;;;;5002822;28;20049;-63
2022/07/16 10:53:57;;;;;;;2.58;0.68;;;22.40;51.10;;;;;;5005037;28;20046;-63
2022/07/16 10:56:31;;;;;;;3.25;0.82;;;22.40;50.60;;;;;;5009379;28;20096;-63
2022/07/16 10:58:57;;;;;;;2.85;0.57;;;22.40;50.60;;;;;;5009007;28;20042;-63
2022/07/16 11:01:23;;;;;;;2.45;0.50;;;22.40;50.70;;;;;;5011044;28;20038;-64
2022/07/16 11:03:51;;;;;;;3.72;0.50;;;22.40;50.80;;;;;;4991826;28;20038;-64
2022/07/16 11:06:20;;;;;;;2.83;0.40;;;22.40;50.90;;;;;;5010181;28;20042;-63
2022/07/16 11:08:51;;;;;;;2.50;0.40;;;22.40;51.00;;;;;;5012456;28;20041;-63
2022/07/16 11:11:16;;;;;;;2.40;0.50;;;22.40;51.20;;;;;;5008241;28;20054;-63
2022/07/16 11:13:42;;;;;;;3.60;0.50;;;22.40;51.30;;;;;;5011022;28;20046;-64
2022/07/16 11:16:08;;;;;;;3.70;0.63;;;22.40;51.40;;;;;;4994139;28;20402;-62
2022/07/16 11:18:37;;;;;;;1.77;0.40;;;22.40;51.50;;;;;;4992108;28;20490;-62
2022/07/16 11:21:09;;;;;;;5.95;0.50;;;22.40;51.50;;;;;;4994054;28;20047;-62
2022/07/16 11:23:54;;;;;;;2.25;0.50;;;22.40;51.60;;;;;;4993079;28;20046;-62
2022/07/16 11:26:20;;;;;;;4.78;0.80;;;22.50;51.70;;;;;;4994116;28;20046;-62
2022/07/16 11:28:50;;;;;;;2.78;0.50;;;22.50;51.70;;;;;;5002430;28;20486;-62
2022/07/16 11:31:21;;;;;;;3.95;0.60;;;22.50;51.60;;;;;;5012478;28;20042;-62
2022/07/16 11:33:47;;;;;;;2.88;0.50;;;22.50;51.70;;;;;;5011979;28;20108;-62
2022/07/16 11:36:13;;;;;;;3.65;0.47;;;22.50;51.80;;;;;;5012143;28;20045;-63
2022/07/16 11:38:39;;;;;;;2.70;0.80;;;22.50;51.90;;;;;;5011265;28;20120;-62
2022/07/16 11:41:05;;;;;;;2.17;0.65;;;22.50;52.00;;;;;;5013310;28;20451;-63
2022/07/16 11:43:30;;;;;;;3.33;0.50;;;22.50;52.10;;;;;;5011984;28;20505;-63
2022/07/16 11:45:56;;;;;;;2.15;0.50;;;22.50;52.10;;;;;;5012085;28;20042;-62
2022/07/16 11:48:21;;;;;;;2.85;0.50;;;22.50;52.10;;;;;;5012072;28;20046;-64
2022/07/16 11:50:47;;;;;;;2.15;0.50;;;22.50;52.20;;;;;;5012928;28;20084;-62
2022/07/16 11:53:12;;;;;;;2.15;0.38;;;22.50;52.30;;;;;;5012472;28;20368;-62
2022/07/16 11:55:44;;;;;;;3.85;0.45;;;22.50;52.40;;;;;;5011942;28;20136;-62
2022/07/16 11:58:15;;;;;;;3.15;0.50;;;22.50;52.60;;;;;;5012866;28;20045;-61
2022/07/16 12:00:44;;;;;;;4.82;0.47;;;22.50;52.50;;;;;;5011072;28;20041;-62
2022/07/16 12:03:10;;;;;;;2.58;0.40;;;22.50;52.50;;;;;;5012936;28;20077;-62
2022/07/16 12:05:35;;;;;;;4.72;0.70;;;22.60;52.50;;;;;;5012404;28;20038;-62
2022/07/16 12:08:03;;;;;;;4.00;0.50;;;22.50;52.50;;;;;;5011269;28;20497;-62
2022/07/16 12:10:29;;;;;;;4.45;0.50;;;22.60;52.60;;;;;;5013037;28;20042;-62
2022/07/16 12:13:02;;;;;;;1.33;0.50;;;22.60;52.60;;;;;;5011830;28;20373;-62
2022/07/16 12:15:27;;;;;;;3.10;0.50;;;22.50;52.40;;;;;;5012688;28;20623;-62
2022/07/16 12:17:53;;;;;;;2.33;0.47;;;22.50;52.50;;;;;;5011601;28;20133;-62
2022/07/16 12:20:22;;;;;;;1.75;0.40;;;22.60;52.50;;;;;;5012211;28;20172;-62
2022/07/16 12:23:07;;;;;;;2.95;0.50;;;22.60;52.60;;;;;;5012500;28;20054;-62
2022/07/16 12:25:42;;;;;;;2.33;0.52;;;22.60;52.60;;;;;;5017194;28;20065;-63
2022/07/16 12:28:10;;;;;;;3.92;0.60;;;22.60;52.50;;;;;;5015687;28;20444;-62
2022/07/16 12:31:05;;;;;;;2.08;0.47;;;22.60;52.50;;;;;;5015884;28;20050;-62
2022/07/16 12:33:31;;;;;;;2.80;0.45;;;22.60;52.60;;;;;;5016039;28;20065;-62
2022/07/16 12:36:04;;;;;;;2.03;0.35;;;22.60;52.50;;;;;;5015976;28;20393;-62
2022/07/16 12:38:50;;;;;;;1.40;0.32;;;22.60;52.40;;;;;;5016528;28;20470;-62
2022/07/16 12:41:27;;;;;;;2.35;0.47;;;22.60;52.50;;;;;;5015738;28;20124;-62
2022/07/16 12:44:00;;;;;;;2.90;0.40;;;22.60;52.50;;;;;;5016595;28;20038;-62
2022/07/16 12:46:31;;;;;;;2.42;0.52;;;22.60;52.50;;;;;;5016725;28;20046;-62
2022/07/16 12:49:01;;;;;;;1.75;0.70;;;22.60;52.60;;;;;;5015586;28;20088;-62
2022/07/16 12:51:33;;;;;;;3.22;0.50;;;22.60;52.60;;;;;;5016390;28;20038;-62
2022/07/16 12:53:59;;;;;;;1.67;0.30;;;22.60;52.70;;;;;;5016393;28;20041;-62